createdAt,value
2019-02-12T00:00:38.363Z,1016.50
2019-02-12T00:01:38.352Z,1016.49
2019-02-12T00:02:38.356Z,1016.48
2019-02-12T00:03:38.328Z,1016.47
2019-02-12T00:04:38.323Z,1016.50
2019-02-12T00:05:38.308Z,1016.50
2019-02-12T00:06:38.295Z,1016.51
2019-02-12T00:07:38.324Z,1016.50
2019-02-12T00:08:38.276Z,1016.54
2019-02-12T00:09:38.268Z,1016.49
2019-02-12T00:10:38.260Z,1016.53
2019-02-12T00:11:38.275Z,1016.50
2019-02-12T00:12:38.238Z,1016.48
2019-02-12T00:13:38.238Z,1016.49
2019-02-12T00:14:38.217Z,1016.49
2019-02-12T00:15:38.206Z,1016.60
2019-02-12T00:16:38.201Z,1016.51
2019-02-12T00:17:38.226Z,1016.53
2019-02-12T00:18:38.166Z,1016.49
2019-02-12T00:19:38.159Z,1016.51
2019-02-12T00:20:38.149Z,1016.47
2019-02-12T00:21:38.135Z,1016.49
2019-02-12T00:22:38.127Z,1016.45
2019-02-12T00:23:38.131Z,1016.45
2019-02-12T00:24:38.108Z,1016.41
2019-02-12T00:25:38.088Z,1016.44
2019-02-12T00:26:38.087Z,1016.40
2019-02-12T00:27:38.082Z,1016.41
2019-02-12T00:28:38.066Z,1016.48
2019-02-12T00:29:38.099Z,1016.45
2019-02-12T00:30:38.041Z,1016.44
2019-02-12T00:31:38.024Z,1016.50
2019-02-12T00:32:38.017Z,1016.46
2019-02-12T00:33:38.012Z,1016.48
2019-02-12T00:34:37.998Z,1016.45
2019-02-12T00:35:38.005Z,1016.46
2019-02-12T00:36:37.982Z,1016.49
2019-02-12T00:37:37.968Z,1016.46
2019-02-12T00:38:37.952Z,1016.47
2019-02-12T00:39:37.943Z,1016.45
2019-02-12T00:40:37.949Z,1016.50
2019-02-12T00:41:37.918Z,1016.49
2019-02-12T00:42:37.909Z,1016.53
2019-02-12T00:43:37.893Z,1016.59
2019-02-12T00:44:37.893Z,1016.59
2019-02-12T00:45:37.877Z,1016.69
2019-02-12T00:46:37.870Z,1016.63
2019-02-12T00:47:37.849Z,1016.66
2019-02-12T00:48:37.840Z,1016.64
2019-02-12T00:49:37.900Z,1016.63
2019-02-12T00:50:37.818Z,1016.61
2019-02-12T00:51:37.818Z,1016.63
2019-02-12T00:52:37.805Z,1016.65
2019-02-12T00:53:37.792Z,1016.58
2019-02-12T00:54:37.780Z,1016.61
2019-02-12T00:55:37.780Z,1016.57
2019-02-12T00:56:37.762Z,1016.61
2019-02-12T00:57:37.770Z,1016.61
2019-02-12T00:58:37.734Z,1016.58
2019-02-12T00:59:37.723Z,1016.49
2019-02-12T01:00:37.708Z,1016.50
2019-02-12T01:01:37.706Z,1016.50
2019-02-12T01:02:37.691Z,1016.45
2019-02-12T01:03:37.685Z,1016.46
2019-02-12T01:04:37.669Z,1016.52
2019-02-12T01:05:37.668Z,1016.55
2019-02-12T01:06:37.642Z,1016.57
2019-02-12T01:07:37.638Z,1016.52
2019-02-12T01:08:37.665Z,1016.53
2019-02-12T01:09:37.643Z,1016.56
2019-02-12T01:10:37.599Z,1016.51
2019-02-12T01:11:37.595Z,1016.50
2019-02-12T01:12:37.579Z,1016.48
2019-02-12T01:13:37.565Z,1016.56
2019-02-12T01:14:37.562Z,1016.63
2019-02-12T01:15:37.601Z,1016.60
2019-02-12T01:16:37.541Z,1016.60
2019-02-12T01:17:37.523Z,1016.62
2019-02-12T01:18:37.517Z,1016.58
2019-02-12T01:19:37.506Z,1016.69
2019-02-12T01:20:37.494Z,1016.71
2019-02-12T01:21:37.526Z,1016.72
2019-02-12T01:22:37.486Z,1016.75
2019-02-12T01:23:37.459Z,1016.75
2019-02-12T01:24:37.450Z,1016.85
2019-02-12T01:25:37.437Z,1016.93
2019-02-12T01:26:37.429Z,1016.83
2019-02-12T01:27:37.428Z,1016.91
2019-02-12T01:28:37.402Z,1016.82
2019-02-12T01:29:37.402Z,1016.80
2019-02-12T01:30:37.381Z,1016.86
2019-02-12T01:31:37.437Z,1016.95
2019-02-12T01:32:37.408Z,1016.93
2019-02-12T01:33:37.350Z,1016.87
2019-02-12T01:34:37.337Z,1016.93
2019-02-12T01:35:37.332Z,1016.97
2019-02-12T01:36:37.316Z,1017.02
2019-02-12T01:37:37.325Z,1017.03
2019-02-12T01:38:37.300Z,1017.05
2019-02-12T01:39:37.290Z,1017.08
2019-02-12T01:40:37.278Z,1017.06
2019-02-12T01:41:37.269Z,1017.08
2019-02-12T01:42:37.250Z,1017.04
2019-02-12T01:43:37.274Z,1017.05
2019-02-12T01:44:37.228Z,1017.07
2019-02-12T01:45:37.232Z,1017.07
2019-02-12T01:46:37.211Z,1017.09
2019-02-12T01:47:37.292Z,1017.08
2019-02-12T01:48:37.186Z,1017.21
2019-02-12T01:49:37.180Z,1017.16
2019-02-12T01:50:37.169Z,1017.22
2019-02-12T01:51:37.153Z,1017.18
2019-02-12T01:52:37.143Z,1017.14
2019-02-12T01:53:37.175Z,1017.16
2019-02-12T01:54:37.152Z,1017.10
2019-02-12T01:55:37.115Z,1017.15
2019-02-12T01:56:37.101Z,1017.11
2019-02-12T01:57:37.089Z,1017.10
2019-02-12T01:58:37.144Z,1017.13
2019-02-12T01:59:37.067Z,1017.20
2019-02-12T02:00:37.057Z,1017.19
2019-02-12T02:01:37.047Z,1017.28
2019-02-12T02:02:37.043Z,1017.29
2019-02-12T02:03:37.028Z,1017.31
2019-02-12T02:04:37.044Z,1017.26
2019-02-12T02:05:37.014Z,1017.19
2019-02-12T02:06:37.023Z,1017.25
2019-02-12T02:07:36.978Z,1017.27
2019-02-12T02:08:36.971Z,1017.24
2019-02-12T02:09:36.957Z,1017.24
2019-02-12T02:10:36.947Z,1017.30
2019-02-12T02:11:36.973Z,1017.36
2019-02-12T02:12:36.925Z,1017.26
2019-02-12T02:13:36.917Z,1017.34
2019-02-12T02:14:36.908Z,1017.32
2019-02-12T02:15:36.896Z,1017.34
2019-02-12T02:16:36.890Z,1017.26
2019-02-12T02:17:36.869Z,1017.30
2019-02-12T02:18:36.885Z,1017.24
2019-02-12T02:19:36.857Z,1017.28
2019-02-12T02:20:36.838Z,1017.19
2019-02-12T02:21:43.955Z,1017.33
2019-02-12T02:22:37.847Z,1017.36
2019-02-12T02:23:36.805Z,1017.34
2019-02-12T02:24:36.793Z,1017.30
2019-02-12T02:25:36.788Z,1017.38
2019-02-12T02:26:36.775Z,1017.45
2019-02-12T02:27:36.771Z,1017.38
2019-02-12T02:28:36.754Z,1017.37
2019-02-12T02:29:36.750Z,1017.42
2019-02-12T02:30:36.753Z,1017.37
2019-02-12T02:31:36.718Z,1017.45
2019-02-12T02:32:36.706Z,1017.51
2019-02-12T02:33:36.710Z,1017.43
2019-02-12T02:34:36.689Z,1017.54
2019-02-12T02:35:36.682Z,1017.54
2019-02-12T02:36:36.665Z,1017.60
2019-02-12T02:37:36.653Z,1017.43
2019-02-12T02:38:36.707Z,1017.52
2019-02-12T02:39:36.630Z,1017.48
2019-02-12T02:40:36.622Z,1017.49
2019-02-12T02:41:36.615Z,1017.48
2019-02-12T02:42:36.600Z,1017.49
2019-02-12T02:43:36.590Z,1017.45
2019-02-12T02:44:36.597Z,1017.44
2019-02-12T02:45:36.569Z,1017.49
2019-02-12T02:46:36.556Z,1017.54
2019-02-12T02:47:36.548Z,1017.55
2019-02-12T02:48:36.550Z,1017.55
2019-02-12T02:49:36.519Z,1017.58
2019-02-12T02:50:36.509Z,1017.59
2019-02-12T02:51:36.507Z,1017.59
2019-02-12T02:52:36.532Z,1017.54
2019-02-12T02:53:36.476Z,1017.53
2019-02-12T02:54:36.471Z,1017.60
2019-02-12T02:55:36.462Z,1017.55
2019-02-12T02:56:36.445Z,1017.63
2019-02-12T02:57:36.433Z,1017.72
2019-02-12T02:58:36.455Z,1017.66
2019-02-12T02:59:36.411Z,1017.61
2019-02-12T03:00:36.401Z,1017.63
2019-02-12T03:01:36.394Z,1017.69
2019-02-12T03:02:36.383Z,1017.75
2019-02-12T03:03:36.437Z,1017.72
2019-02-12T03:04:36.357Z,1017.68
2019-02-12T03:05:36.350Z,1017.71
2019-02-12T03:06:36.343Z,1017.70
2019-02-12T03:07:36.328Z,1017.66
2019-02-12T03:08:36.319Z,1017.62
2019-02-12T03:09:36.349Z,1017.63
2019-02-12T03:10:36.292Z,1017.69
2019-02-12T03:11:36.289Z,1017.74
2019-02-12T03:12:36.268Z,1017.71
2019-02-12T03:13:36.260Z,1017.70
2019-02-12T03:14:36.247Z,1017.77
2019-02-12T03:15:36.270Z,1017.77
2019-02-12T03:16:36.230Z,1017.77
2019-02-12T03:17:36.216Z,1017.74
2019-02-12T03:18:36.213Z,1017.71
2019-02-12T03:19:36.199Z,1017.75
2019-02-12T03:20:36.205Z,1017.75
2019-02-12T03:21:36.171Z,1017.73
2019-02-12T03:22:36.159Z,1017.72
2019-02-12T03:23:36.149Z,1017.83
2019-02-12T03:24:36.161Z,1017.85
2019-02-12T03:25:36.194Z,1017.92
2019-02-12T03:26:36.120Z,1017.95
2019-02-12T03:27:36.124Z,1017.94
2019-02-12T03:28:36.142Z,1017.89
2019-02-12T03:29:36.083Z,1017.96
2019-02-12T03:30:36.084Z,1017.97
2019-02-12T03:31:36.096Z,1018.03
2019-02-12T03:32:36.052Z,1018.11
2019-02-12T03:33:36.045Z,1018.09
2019-02-12T03:34:36.028Z,1018.06
2019-02-12T03:35:36.022Z,1018.07
2019-02-12T03:36:36.040Z,1018.06
2019-02-12T03:37:35.996Z,1018.16
2019-02-12T03:38:35.985Z,1018.10
2019-02-12T03:39:35.981Z,1018.08
2019-02-12T03:40:35.963Z,1018.11
2019-02-12T03:41:35.980Z,1018.07
2019-02-12T03:42:35.951Z,1018.07
2019-02-12T03:43:35.933Z,1018.06
2019-02-12T03:44:35.919Z,1018.14
2019-02-12T03:45:35.913Z,1018.14
2019-02-12T03:46:35.898Z,1018.17
2019-02-12T03:47:35.957Z,1018.15
2019-02-12T03:48:35.882Z,1018.15
2019-02-12T03:49:35.870Z,1018.08
2019-02-12T03:50:35.858Z,1018.06
2019-02-12T03:51:35.846Z,1018.16
2019-02-12T03:52:35.843Z,1018.06
2019-02-12T03:53:35.838Z,1018.15
2019-02-12T03:54:35.818Z,1018.13
2019-02-12T03:55:35.806Z,1018.17
2019-02-12T03:56:35.792Z,1018.23
2019-02-12T03:57:35.782Z,1018.17
2019-02-12T03:58:35.897Z,1018.28
2019-02-12T03:59:35.767Z,1018.30
2019-02-12T04:00:35.752Z,1018.31
2019-02-12T04:01:35.735Z,1018.39
2019-02-12T04:02:35.729Z,1018.27
2019-02-12T04:03:42.612Z,1018.26
2019-02-12T04:04:35.736Z,1018.25
2019-02-12T04:05:35.699Z,1018.21
2019-02-12T04:06:35.681Z,1018.26
2019-02-12T04:07:35.671Z,1018.29
2019-02-12T04:08:35.659Z,1018.38
2019-02-12T04:09:35.661Z,1018.30
2019-02-12T04:10:35.644Z,1018.36
2019-02-12T04:11:35.632Z,1018.31
2019-02-12T04:12:35.628Z,1018.27
2019-02-12T04:13:35.610Z,1018.29
2019-02-12T04:14:35.628Z,1018.23
2019-02-12T04:15:35.584Z,1018.25
2019-02-12T04:16:35.582Z,1018.27
2019-02-12T04:17:35.562Z,1018.22
2019-02-12T04:18:35.551Z,1018.24
2019-02-12T04:19:35.607Z,1018.18
2019-02-12T04:20:35.535Z,1018.16
2019-02-12T04:21:35.528Z,1018.18
2019-02-12T04:22:35.510Z,1018.19
2019-02-12T04:23:35.500Z,1018.22
2019-02-12T04:24:35.489Z,1018.17
2019-02-12T04:25:35.487Z,1018.17
2019-02-12T04:26:35.536Z,1018.17
2019-02-12T04:27:35.462Z,1018.22
2019-02-12T04:28:35.443Z,1018.18
2019-02-12T04:29:35.438Z,1018.21
2019-02-12T04:30:35.433Z,1018.19
2019-02-12T04:31:35.410Z,1018.17
2019-02-12T04:32:35.408Z,1018.07
2019-02-12T04:33:35.390Z,1018.14
2019-02-12T04:34:35.383Z,1018.13
2019-02-12T04:35:35.368Z,1018.21
2019-02-12T04:36:35.375Z,1018.22
2019-02-12T04:37:35.351Z,1018.18
2019-02-12T04:38:35.379Z,1018.25
2019-02-12T04:39:35.323Z,1018.26
2019-02-12T04:40:35.340Z,1018.32
2019-02-12T04:41:35.305Z,1018.29
2019-02-12T04:42:35.293Z,1018.39
2019-02-12T04:43:35.325Z,1018.37
2019-02-12T04:44:35.272Z,1018.43
2019-02-12T04:45:35.262Z,1018.46
2019-02-12T04:46:35.247Z,1018.56
2019-02-12T04:47:35.238Z,1018.49
2019-02-12T04:48:35.226Z,1018.49
2019-02-12T04:49:35.239Z,1018.44
2019-02-12T04:50:35.204Z,1018.43
2019-02-12T04:51:35.193Z,1018.50
2019-02-12T04:52:35.180Z,1018.42
2019-02-12T04:53:35.189Z,1018.40
2019-02-12T04:54:35.193Z,1018.36
2019-02-12T04:55:35.215Z,1018.34
2019-02-12T04:56:35.140Z,1018.40
2019-02-12T04:57:35.141Z,1018.38
2019-02-12T04:58:35.120Z,1018.41
2019-02-12T04:59:35.105Z,1018.37
2019-02-12T05:00:35.098Z,1018.35
2019-02-12T05:01:35.098Z,1018.37
2019-02-12T05:02:35.073Z,1018.42
2019-02-12T05:03:35.067Z,1018.43
2019-02-12T05:04:35.085Z,1018.45
2019-02-12T05:05:35.044Z,1018.42
2019-02-12T05:06:35.032Z,1018.46
2019-02-12T05:07:35.055Z,1018.34
2019-02-12T05:08:35.012Z,1018.44
2019-02-12T05:09:35.003Z,1018.41
2019-02-12T05:10:34.988Z,1018.37
2019-02-12T05:11:34.980Z,1018.42
2019-02-12T05:12:34.998Z,1018.36
2019-02-12T05:13:34.953Z,1018.35
2019-02-12T05:14:34.941Z,1018.41
2019-02-12T05:15:35.042Z,1018.39
2019-02-12T05:16:34.919Z,1018.50
2019-02-12T05:17:34.915Z,1018.50
2019-02-12T05:18:34.899Z,1018.53
2019-02-12T05:19:34.886Z,1018.61
2019-02-12T05:20:34.876Z,1018.61
2019-02-12T05:21:34.907Z,1018.62
2019-02-12T05:22:43.102Z,1018.51
2019-02-12T05:23:35.848Z,1018.60
2019-02-12T05:24:34.839Z,1018.60
2019-02-12T05:25:34.829Z,1018.60
2019-02-12T05:26:34.817Z,1018.53
2019-02-12T05:27:34.818Z,1018.57
2019-02-12T05:28:34.792Z,1018.56
2019-02-12T05:29:34.779Z,1018.45
2019-02-12T05:30:34.773Z,1018.50
2019-02-12T05:31:34.756Z,1018.43
2019-02-12T05:32:34.780Z,1018.43
2019-02-12T05:33:34.740Z,1018.43
2019-02-12T05:34:34.723Z,1018.49
2019-02-12T05:35:34.716Z,1018.48
2019-02-12T05:36:34.702Z,1018.43
2019-02-12T05:37:34.699Z,1018.45
2019-02-12T05:38:34.712Z,1018.47
2019-02-12T05:39:34.669Z,1018.54
2019-02-12T05:40:34.659Z,1018.55
2019-02-12T05:41:34.690Z,1018.53
2019-02-12T05:42:34.642Z,1018.49
2019-02-12T05:43:34.631Z,1018.54
2019-02-12T05:44:34.616Z,1018.58
2019-02-12T05:45:34.608Z,1018.50
2019-02-12T05:46:34.665Z,1018.59
2019-02-12T05:47:34.588Z,1018.62
2019-02-12T05:48:34.574Z,1018.58
2019-02-12T05:49:34.561Z,1018.57
2019-02-12T05:50:34.548Z,1018.61
2019-02-12T05:51:34.537Z,1018.60
2019-02-12T05:52:34.570Z,1018.61
2019-02-12T05:53:34.516Z,1018.66
2019-02-12T05:54:34.507Z,1018.68
2019-02-12T05:55:34.495Z,1018.66
2019-02-12T05:56:34.489Z,1018.71
2019-02-12T05:57:34.485Z,1018.75
2019-02-12T05:58:34.486Z,1018.81
2019-02-12T05:59:34.475Z,1018.86
2019-02-12T06:00:34.445Z,1018.87
2019-02-12T06:01:34.428Z,1018.91
2019-02-12T06:02:34.453Z,1018.93
2019-02-12T06:03:34.417Z,1018.97
2019-02-12T06:04:34.469Z,1018.98
2019-02-12T06:05:34.392Z,1019.08
2019-02-12T06:06:34.380Z,1019.14
2019-02-12T06:07:34.373Z,1019.14
2019-02-12T06:08:34.370Z,1019.19
2019-02-12T06:09:34.346Z,1019.18
2019-02-12T06:10:34.348Z,1019.26
2019-02-12T06:11:34.327Z,1019.32
2019-02-12T06:12:34.313Z,1019.39
2019-02-12T06:13:34.302Z,1019.35
2019-02-12T06:14:34.327Z,1019.41
2019-02-12T06:15:34.301Z,1019.45
2019-02-12T06:16:34.266Z,1019.47
2019-02-12T06:17:34.255Z,1019.53
2019-02-12T06:18:34.244Z,1019.53
2019-02-12T06:19:34.239Z,1019.49
2019-02-12T06:20:34.262Z,1019.54
2019-02-12T06:21:34.215Z,1019.52
2019-02-12T06:22:34.202Z,1019.55
2019-02-12T06:23:34.196Z,1019.55
2019-02-12T06:24:34.182Z,1019.57
2019-02-12T06:25:34.213Z,1019.58
2019-02-12T06:26:34.189Z,1019.58
2019-02-12T06:27:34.153Z,1019.67
2019-02-12T06:28:34.140Z,1019.66
2019-02-12T06:29:34.130Z,1019.67
2019-02-12T06:30:34.147Z,1019.70
2019-02-12T06:31:34.137Z,1019.68
2019-02-12T06:32:34.126Z,1019.68
2019-02-12T06:33:34.081Z,1019.72
2019-02-12T06:34:34.075Z,1019.79
2019-02-12T06:35:34.064Z,1019.80
2019-02-12T06:36:34.088Z,1019.81
2019-02-12T06:37:34.041Z,1019.87
2019-02-12T06:38:34.026Z,1019.93
2019-02-12T06:39:34.020Z,1019.92
2019-02-12T06:40:34.013Z,1019.90
2019-02-12T06:41:33.997Z,1019.94
2019-02-12T06:42:34.022Z,1019.99
2019-02-12T06:43:34.043Z,1019.99
2019-02-12T06:44:33.969Z,1019.97
2019-02-12T06:45:33.956Z,1020.00
2019-02-12T06:46:33.947Z,1019.99
2019-02-12T06:47:33.929Z,1020.06
2019-02-12T06:48:33.919Z,1020.10
2019-02-12T06:49:33.952Z,1020.13
2019-02-12T06:50:33.902Z,1020.11
2019-02-12T06:51:33.895Z,1020.08
2019-02-12T06:52:33.875Z,1020.17
2019-02-12T06:53:33.870Z,1020.12
2019-02-12T06:54:33.888Z,1020.05
2019-02-12T06:55:33.843Z,1020.11
2019-02-12T06:56:33.835Z,1020.06
2019-02-12T06:57:33.826Z,1020.10
2019-02-12T06:58:33.814Z,1020.04
2019-02-12T06:59:33.835Z,1020.10
2019-02-12T07:00:33.797Z,1020.12
2019-02-12T07:01:33.788Z,1020.05
2019-02-12T07:02:33.772Z,1020.06
2019-02-12T07:03:33.761Z,1020.08
2019-02-12T07:04:33.766Z,1020.16
2019-02-12T07:05:33.740Z,1020.13
2019-02-12T07:06:33.725Z,1020.11
2019-02-12T07:07:33.716Z,1020.16
2019-02-12T07:08:33.728Z,1020.18
2019-02-12T07:09:33.694Z,1020.21
2019-02-12T07:10:33.683Z,1020.36
2019-02-12T07:11:33.672Z,1020.38
2019-02-12T07:12:33.663Z,1020.34
2019-02-12T07:13:33.655Z,1020.45
2019-02-12T07:14:33.641Z,1020.48
2019-02-12T07:15:33.629Z,1020.51
2019-02-12T07:16:33.617Z,1020.51
2019-02-12T07:17:33.605Z,1020.46
2019-02-12T07:18:33.605Z,1020.46
2019-02-12T07:19:33.586Z,1020.56
2019-02-12T07:20:33.576Z,1020.59
2019-02-12T07:21:33.605Z,1020.58
2019-02-12T07:22:33.549Z,1020.62
2019-02-12T07:23:33.537Z,1020.68
2019-02-12T07:24:33.593Z,1020.60
2019-02-12T07:25:33.514Z,1020.69
2019-02-12T07:26:33.510Z,1020.62
2019-02-12T07:27:33.518Z,1020.62
2019-02-12T07:28:33.483Z,1020.65
2019-02-12T07:29:33.481Z,1020.64
2019-02-12T07:30:33.495Z,1020.72
2019-02-12T07:31:34.722Z,1020.67
2019-02-12T07:32:33.454Z,1020.68
2019-02-12T07:33:33.458Z,1020.72
2019-02-12T07:34:33.420Z,1020.78
2019-02-12T07:35:33.415Z,1020.73
2019-02-12T07:36:33.404Z,1020.73
2019-02-12T07:37:33.418Z,1020.78
2019-02-12T07:38:33.387Z,1020.77
2019-02-12T07:39:33.363Z,1020.80
2019-02-12T07:40:33.355Z,1020.81
2019-02-12T07:41:33.344Z,1020.87
2019-02-12T07:42:33.366Z,1020.88
2019-02-12T07:43:33.324Z,1020.92
2019-02-12T07:44:33.315Z,1020.99
2019-02-12T07:45:33.302Z,1020.96
2019-02-12T07:46:33.312Z,1020.94
2019-02-12T07:47:33.280Z,1020.90
2019-02-12T07:48:33.268Z,1020.98
2019-02-12T07:49:33.258Z,1020.96
2019-02-12T07:50:33.250Z,1021.02
2019-02-12T07:51:33.280Z,1020.98
2019-02-12T07:52:33.220Z,1021.02
2019-02-12T07:53:33.215Z,1021.03
2019-02-12T07:54:33.204Z,1021.04
2019-02-12T07:55:33.194Z,1021.09
2019-02-12T07:56:33.213Z,1021.12
2019-02-12T07:57:33.209Z,1021.10
2019-02-12T07:58:33.155Z,1021.13
2019-02-12T07:59:33.148Z,1021.20
2019-02-12T08:00:33.135Z,1021.15
2019-02-12T08:01:33.121Z,1021.19
2019-02-12T08:02:33.822Z,1021.22
2019-02-12T08:03:33.131Z,1021.18
2019-02-12T08:04:33.095Z,1021.16
2019-02-12T08:05:33.079Z,1021.07
2019-02-12T08:06:33.074Z,1021.08
2019-02-12T08:07:33.057Z,1021.13
2019-02-12T08:08:33.045Z,1021.14
2019-02-12T08:09:33.086Z,1021.12
2019-02-12T08:10:33.032Z,1021.17
2019-02-12T08:11:33.021Z,1021.16
2019-02-12T08:12:33.010Z,1021.09
2019-02-12T08:13:32.992Z,1021.18
2019-02-12T08:14:33.064Z,1021.15
2019-02-12T08:15:32.987Z,1021.18
2019-02-12T08:16:32.959Z,1021.20
2019-02-12T08:17:32.952Z,1021.14
2019-02-12T08:18:32.941Z,1021.20
2019-02-12T08:19:32.928Z,1021.18
2019-02-12T08:20:32.973Z,1021.24
2019-02-12T08:21:32.912Z,1021.19
2019-02-12T08:22:32.900Z,1021.29
2019-02-12T08:23:41.099Z,1021.31
2019-02-12T08:24:33.876Z,1021.33
2019-02-12T08:25:32.868Z,1021.37
2019-02-12T08:26:32.880Z,1021.32
2019-02-12T08:27:32.841Z,1021.37
2019-02-12T08:28:32.834Z,1021.43
2019-02-12T08:29:32.841Z,1021.47
2019-02-12T08:30:32.807Z,1021.43
2019-02-12T08:31:32.808Z,1021.41
2019-02-12T08:32:32.787Z,1021.42
2019-02-12T08:33:32.777Z,1021.39
2019-02-12T08:34:32.765Z,1021.41
2019-02-12T08:35:32.763Z,1021.39
2019-02-12T08:36:32.810Z,1021.38
2019-02-12T08:37:32.733Z,1021.43
2019-02-12T08:38:32.728Z,1021.41
2019-02-12T08:39:32.712Z,1021.40
2019-02-12T08:40:32.731Z,1021.37
2019-02-12T08:41:32.689Z,1021.53
2019-02-12T08:42:32.708Z,1021.48
2019-02-12T08:43:32.672Z,1021.49
2019-02-12T08:44:32.656Z,1021.54
2019-02-12T08:45:32.655Z,1021.57
2019-02-12T08:46:32.640Z,1021.58
2019-02-12T08:47:32.630Z,1021.59
2019-02-12T08:48:32.663Z,1021.61
2019-02-12T08:49:32.601Z,1021.57
2019-02-12T08:50:32.602Z,1021.64
2019-02-12T08:51:32.582Z,1021.64
2019-02-12T08:52:32.572Z,1021.62
2019-02-12T08:53:32.559Z,1021.66
2019-02-12T08:54:32.588Z,1021.66
2019-02-12T08:55:32.537Z,1021.68
2019-02-12T08:56:32.527Z,1021.71
2019-02-12T08:57:32.652Z,1021.71
2019-02-12T08:58:32.540Z,1021.72
2019-02-12T08:59:32.497Z,1021.79
2019-02-12T09:00:32.481Z,1021.77
2019-02-12T09:01:32.476Z,1021.74
2019-02-12T09:02:32.468Z,1021.83
2019-02-12T09:03:32.554Z,1021.78
2019-02-12T09:04:32.436Z,1021.83
2019-02-12T09:05:32.487Z,1021.85
2019-02-12T09:06:32.415Z,1021.89
2019-02-12T09:07:32.410Z,1021.81
2019-02-12T09:08:32.396Z,1021.85
2019-02-12T09:09:32.418Z,1021.87
2019-02-12T09:10:32.404Z,1021.88
2019-02-12T09:11:32.366Z,1021.89
2019-02-12T09:12:32.351Z,1021.89
2019-02-12T09:13:32.347Z,1021.95
2019-02-12T09:14:32.332Z,1022.01
2019-02-12T09:15:32.351Z,1022.01
2019-02-12T09:16:32.307Z,1022.01
2019-02-12T09:17:32.300Z,1021.95
2019-02-12T09:18:32.290Z,1021.97
2019-02-12T09:19:32.272Z,1021.95
2019-02-12T09:20:32.330Z,1021.93
2019-02-12T09:21:32.259Z,1021.91
2019-02-12T09:22:32.240Z,1021.96
2019-02-12T09:23:32.238Z,1021.99
2019-02-12T09:24:32.224Z,1022.02
2019-02-12T09:25:32.277Z,1021.98
2019-02-12T09:26:32.197Z,1021.98
2019-02-12T09:27:32.191Z,1021.95
2019-02-12T09:28:32.178Z,1021.91
2019-02-12T09:29:32.166Z,1022.00
2019-02-12T09:30:32.201Z,1022.02
2019-02-12T09:31:32.148Z,1021.93
2019-02-12T09:32:32.142Z,1021.98
2019-02-12T09:33:32.125Z,1022.02
2019-02-12T09:34:32.109Z,1022.02
2019-02-12T09:35:32.104Z,1022.03
2019-02-12T09:36:32.132Z,1022.15
2019-02-12T09:37:33.949Z,1022.14
2019-02-12T09:38:32.070Z,1022.15
2019-02-12T09:39:32.053Z,1022.23
2019-02-12T09:40:32.049Z,1022.22
2019-02-12T09:41:32.035Z,1022.23
2019-02-12T09:42:32.063Z,1022.27
2019-02-12T09:43:32.012Z,1022.31
2019-02-12T09:44:32.005Z,1022.33
2019-02-12T09:45:31.991Z,1022.36
2019-02-12T09:46:31.982Z,1022.37
2019-02-12T09:47:31.991Z,1022.52
2019-02-12T09:48:31.960Z,1022.43
2019-02-12T09:49:31.945Z,1022.47
2019-02-12T09:50:31.935Z,1022.46
2019-02-12T09:51:31.928Z,1022.47
2019-02-12T09:52:31.980Z,1022.43
2019-02-12T09:53:31.905Z,1022.56
2019-02-12T09:54:31.894Z,1022.56
2019-02-12T09:55:31.888Z,1022.55
2019-02-12T09:56:31.871Z,1022.51
2019-02-12T09:57:31.857Z,1022.53
2019-02-12T09:58:31.914Z,1022.60
2019-02-12T09:59:31.834Z,1022.59
2019-02-12T10:00:31.833Z,1022.68
2019-02-12T10:01:31.817Z,1022.65
2019-02-12T10:02:31.811Z,1022.69
2019-02-12T10:03:31.791Z,1022.65
2019-02-12T10:04:31.809Z,1022.62
2019-02-12T10:05:31.770Z,1022.65
2019-02-12T10:06:31.764Z,1022.61
2019-02-12T10:07:31.764Z,1022.65
2019-02-12T10:08:31.737Z,1022.69
2019-02-12T10:09:31.784Z,1022.62
2019-02-12T10:10:31.721Z,1022.64
2019-02-12T10:11:31.708Z,1022.65
2019-02-12T10:12:31.695Z,1022.72
2019-02-12T10:13:31.680Z,1022.72
2019-02-12T10:14:31.672Z,1022.66
2019-02-12T10:15:31.692Z,1022.64
2019-02-12T10:16:31.654Z,1022.71
2019-02-12T10:17:31.637Z,1022.70
2019-02-12T10:18:31.626Z,1022.74
2019-02-12T10:19:31.614Z,1022.73
2019-02-12T10:20:31.638Z,1022.70
2019-02-12T10:21:31.604Z,1022.75
2019-02-12T10:22:31.587Z,1022.70
2019-02-12T10:23:31.574Z,1022.70
2019-02-12T10:24:31.562Z,1022.75
2019-02-12T10:25:31.555Z,1022.82
2019-02-12T10:26:31.579Z,1022.90
2019-02-12T10:27:31.527Z,1022.94
2019-02-12T10:28:31.521Z,1022.94
2019-02-12T10:29:31.509Z,1022.94
2019-02-12T10:30:31.500Z,1022.98
2019-02-12T10:31:31.517Z,1023.00
2019-02-12T10:32:31.472Z,1022.90
2019-02-12T10:33:31.504Z,1022.98
2019-02-12T10:34:31.451Z,1022.99
2019-02-12T10:35:31.442Z,1022.90
2019-02-12T10:36:31.438Z,1022.89
2019-02-12T10:37:31.422Z,1022.84
2019-02-12T10:38:31.440Z,1022.93
2019-02-12T10:39:31.399Z,1022.85
2019-02-12T10:40:31.386Z,1022.81
2019-02-12T10:41:31.373Z,1022.85
2019-02-12T10:42:31.368Z,1022.87
2019-02-12T10:43:31.417Z,1022.89
2019-02-12T10:44:31.339Z,1022.90
2019-02-12T10:45:31.331Z,1022.93
2019-02-12T10:46:31.320Z,1022.91
2019-02-12T10:47:31.315Z,1022.88
2019-02-12T10:48:31.304Z,1022.87
2019-02-12T10:49:31.319Z,1022.84
2019-02-12T10:50:31.280Z,1022.86
2019-02-12T10:51:31.264Z,1022.91
2019-02-12T10:52:31.257Z,1022.90
2019-02-12T10:53:31.248Z,1022.89
2019-02-12T10:54:31.265Z,1022.96
2019-02-12T10:55:31.227Z,1022.90
2019-02-12T10:56:31.215Z,1022.91
2019-02-12T10:57:31.206Z,1022.89
2019-02-12T10:58:31.189Z,1022.81
2019-02-12T10:59:31.200Z,1022.77
2019-02-12T11:00:31.168Z,1022.88
2019-02-12T11:01:31.162Z,1022.77
2019-02-12T11:02:31.145Z,1022.80
2019-02-12T11:03:31.138Z,1022.86
2019-02-12T11:04:31.178Z,1022.86
2019-02-12T11:05:31.113Z,1022.94
2019-02-12T11:06:31.106Z,1022.94
2019-02-12T11:07:31.096Z,1022.91
2019-02-12T11:08:31.084Z,1022.86
2019-02-12T11:09:31.067Z,1022.89
2019-02-12T11:10:31.090Z,1022.87
2019-02-12T11:11:31.045Z,1022.87
2019-02-12T11:12:31.040Z,1022.93
2019-02-12T11:13:31.027Z,1022.94
2019-02-12T11:14:31.011Z,1022.90
2019-02-12T11:15:31.021Z,1022.89
2019-02-12T11:16:31.013Z,1022.94
2019-02-12T11:17:30.986Z,1022.88
2019-02-12T11:18:30.974Z,1022.87
2019-02-12T11:19:30.961Z,1022.90
2019-02-12T11:20:30.948Z,1022.96
2019-02-12T11:21:30.960Z,1022.89
2019-02-12T11:22:30.931Z,1022.84
2019-02-12T11:23:30.915Z,1022.86
2019-02-12T11:24:35.610Z,1022.87
2019-02-12T11:25:30.896Z,1022.91
2019-02-12T11:26:30.901Z,1022.94
2019-02-12T11:27:30.874Z,1022.96
2019-02-12T11:28:30.858Z,1022.96
2019-02-12T11:29:30.851Z,1022.97
2019-02-12T11:30:30.842Z,1022.97
2019-02-12T11:31:30.848Z,1022.97
2019-02-12T11:32:30.848Z,1023.02
2019-02-12T11:33:30.824Z,1023.00
2019-02-12T11:34:30.797Z,1023.03
2019-02-12T11:35:30.786Z,1022.99
2019-02-12T11:36:30.776Z,1022.99
2019-02-12T11:37:30.801Z,1023.08
2019-02-12T11:38:30.753Z,1023.04
2019-02-12T11:39:30.744Z,1023.01
2019-02-12T11:40:30.730Z,1022.93
2019-02-12T11:41:30.783Z,1023.04
2019-02-12T11:42:30.708Z,1023.03
2019-02-12T11:43:30.693Z,1023.03
2019-02-12T11:44:30.685Z,1023.04
2019-02-12T11:45:30.672Z,1023.09
2019-02-12T11:46:30.659Z,1023.11
2019-02-12T11:47:30.682Z,1023.07
2019-02-12T11:48:30.638Z,1023.12
2019-02-12T11:49:30.628Z,1023.12
2019-02-12T11:50:30.629Z,1023.14
2019-02-12T11:51:30.605Z,1023.16
2019-02-12T11:52:30.628Z,1023.09
2019-02-12T11:53:30.588Z,1023.09
2019-02-12T11:54:30.577Z,1023.07
2019-02-12T11:55:30.561Z,1023.08
2019-02-12T11:56:30.551Z,1023.10
2019-02-12T11:57:30.572Z,1023.07
2019-02-12T11:58:30.571Z,1023.11
2019-02-12T11:59:30.533Z,1023.16
2019-02-12T12:00:30.505Z,1023.21
2019-02-12T12:01:30.496Z,1023.17
2019-02-12T12:02:30.488Z,1023.15
2019-02-12T12:03:30.474Z,1023.25
2019-02-12T12:04:30.483Z,1023.24
2019-02-12T12:05:30.451Z,1023.26